sensor_id;sensor_type;location;lat;lon;timestamp;P1;durP1;ratioP1;P2;durP2;ratioP2
46348;SDS011;32057;47.830;19.046;2024-02-15T00:02:25;5.03;;;2.88;;
46348;SDS011;32057;47.830;19.046;2024-02-15T00:04:50;4.45;;;3.03;;
46348;SDS011;32057;47.830;19.046;2024-02-15T00:07:15;5.68;;;2.95;;
46348;SDS011;32057;47.830;19.046;2024-02-15T00:09:41;6.45;;;2.97;;
46348;SDS011;32057;47.830;19.046;2024-02-15T00:12:06;6.50;;;3.17;;
46348;SDS011;32057;47.830;19.046;2024-02-15T00:14:32;27.35;;;4.88;;
46348;SDS011;32057;47.830;19.046;2024-02-15T00:16:58;59.35;;;5.93;;
46348;SDS011;32057;47.830;19.046;2024-02-15T00:19:23;6.50;;;3.78;;
46348;SDS011;32057;47.830;19.046;2024-02-15T00:21:49;5.85;;;4.88;;
46348;SDS011;32057;47.830;19.046;2024-02-15T00:24:14;6.40;;;3.65;;
46348;SDS011;32057;47.830;19.046;2024-02-15T00:26:40;5.90;;;3.65;;
46348;SDS011;32057;47.830;19.046;2024-02-15T00:29:06;6.93;;;3.25;;
46348;SDS011;32057;47.830;19.046;2024-02-15T00:31:32;6.90;;;4.07;;
46348;SDS011;32057;47.830;19.046;2024-02-15T00:33:58;6.88;;;3.80;;
46348;SDS011;32057;47.830;19.046;2024-02-15T00:36:24;4.95;;;2.00;;
46348;SDS011;32057;47.830;19.046;2024-02-15T00:38:49;6.15;;;3.10;;
46348;SDS011;32057;47.830;19.046;2024-02-15T00:41:14;3.90;;;2.40;;
46348;SDS011;32057;47.830;19.046;2024-02-15T00:43:40;4.03;;;2.90;;
46348;SDS011;32057;47.830;19.046;2024-02-15T00:46:05;8.05;;;3.25;;
46348;SDS011;32057;47.830;19.046;2024-02-15T00:48:30;5.00;;;2.60;;
46348;SDS011;32057;47.830;19.046;2024-02-15T00:50:56;5.68;;;3.90;;
46348;SDS011;32057;47.830;19.046;2024-02-15T00:53:21;11.13;;;3.55;;
46348;SDS011;32057;47.830;19.046;2024-02-15T00:55:47;11.38;;;5.18;;
46348;SDS011;32057;47.830;19.046;2024-02-15T00:58:12;10.23;;;3.42;;
46348;SDS011;32057;47.830;19.046;2024-02-15T01:00:37;5.55;;;2.92;;
46348;SDS011;32057;47.830;19.046;2024-02-15T01:03:03;9.18;;;3.60;;
46348;SDS011;32057;47.830;19.046;2024-02-15T01:05:30;7.90;;;3.97;;
46348;SDS011;32057;47.830;19.046;2024-02-15T01:07:56;9.55;;;3.50;;
46348;SDS011;32057;47.830;19.046;2024-02-15T01:10:22;5.18;;;3.10;;
46348;SDS011;32057;47.830;19.046;2024-02-15T01:12:49;4.30;;;3.15;;
46348;SDS011;32057;47.830;19.046;2024-02-15T01:15:14;8.75;;;3.10;;
46348;SDS011;32057;47.830;19.046;2024-02-15T01:17:43;3.20;;;2.75;;
46348;SDS011;32057;47.830;19.046;2024-02-15T01:20:09;4.78;;;3.15;;
46348;SDS011;32057;47.830;19.046;2024-02-15T01:22:35;4.85;;;2.10;;
46348;SDS011;32057;47.830;19.046;2024-02-15T01:25:01;5.07;;;2.97;;
46348;SDS011;32057;47.830;19.046;2024-02-15T01:27:26;5.95;;;3.85;;
46348;SDS011;32057;47.830;19.046;2024-02-15T01:29:55;30.33;;;6.25;;
46348;SDS011;32057;47.830;19.046;2024-02-15T01:32:20;6.10;;;3.30;;
46348;SDS011;32057;47.830;19.046;2024-02-15T01:34:46;6.53;;;3.53;;
46348;SDS011;32057;47.830;19.046;2024-02-15T01:37:11;6.72;;;3.60;;
46348;SDS011;32057;47.830;19.046;2024-02-15T01:39:36;6.78;;;3.00;;
46348;SDS011;32057;47.830;19.046;2024-02-15T01:42:03;4.18;;;2.28;;
46348;SDS011;32057;47.830;19.046;2024-02-15T01:44:28;6.10;;;2.63;;
46348;SDS011;32057;47.830;19.046;2024-02-15T01:46:54;5.60;;;3.00;;
46348;SDS011;32057;47.830;19.046;2024-02-15T01:49:21;5.88;;;3.05;;
46348;SDS011;32057;47.830;19.046;2024-02-15T01:51:47;5.60;;;3.45;;
46348;SDS011;32057;47.830;19.046;2024-02-15T01:54:17;7.10;;;3.55;;
46348;SDS011;32057;47.830;19.046;2024-02-15T01:56:43;5.63;;;2.75;;
46348;SDS011;32057;47.830;19.046;2024-02-15T01:59:10;5.13;;;3.50;;
46348;SDS011;32057;47.830;19.046;2024-02-15T02:01:37;4.38;;;3.10;;
46348;SDS011;32057;47.830;19.046;2024-02-15T02:04:03;4.80;;;2.80;;
46348;SDS011;32057;47.830;19.046;2024-02-15T02:06:29;2.88;;;2.35;;
46348;SDS011;32057;47.830;19.046;2024-02-15T02:08:57;3.08;;;1.98;;
46348;SDS011;32057;47.830;19.046;2024-02-15T02:11:23;3.58;;;2.25;;
46348;SDS011;32057;47.830;19.046;2024-02-15T02:13:49;2.97;;;2.63;;
46348;SDS011;32057;47.830;19.046;2024-02-15T02:16:27;5.00;;;2.60;;
46348;SDS011;32057;47.830;19.046;2024-02-15T02:18:57;4.72;;;2.63;;
46348;SDS011;32057;47.830;19.046;2024-02-15T02:21:23;5.15;;;2.95;;
46348;SDS011;32057;47.830;19.046;2024-02-15T02:23:53;3.20;;;2.00;;
46348;SDS011;32057;47.830;19.046;2024-02-15T02:26:21;3.72;;;2.90;;
46348;SDS011;32057;47.830;19.046;2024-02-15T02:28:47;43.92;;;7.72;;
46348;SDS011;32057;47.830;19.046;2024-02-15T02:31:13;4.15;;;2.83;;
46348;SDS011;32057;47.830;19.046;2024-02-15T02:33:39;4.30;;;2.40;;
46348;SDS011;32057;47.830;19.046;2024-02-15T02:36:05;3.10;;;2.20;;
46348;SDS011;32057;47.830;19.046;2024-02-15T02:38:34;7.13;;;2.58;;
46348;SDS011;32057;47.830;19.046;2024-02-15T02:41:02;3.65;;;2.10;;
46348;SDS011;32057;47.830;19.046;2024-02-15T02:43:27;4.70;;;2.05;;
46348;SDS011;32057;47.830;19.046;2024-02-15T02:45:53;7.82;;;3.10;;
46348;SDS011;32057;47.830;19.046;2024-02-15T02:48:18;6.82;;;2.20;;
46348;SDS011;32057;47.830;19.046;2024-02-15T02:50:44;4.80;;;2.75;;
46348;SDS011;32057;47.830;19.046;2024-02-15T02:53:09;3.92;;;2.50;;
46348;SDS011;32057;47.830;19.046;2024-02-15T02:55:35;3.10;;;2.53;;
46348;SDS011;32057;47.830;19.046;2024-02-15T02:58:01;3.97;;;2.50;;
46348;SDS011;32057;47.830;19.046;2024-02-15T03:00:27;4.00;;;2.17;;
46348;SDS011;32057;47.830;19.046;2024-02-15T03:02:53;5.72;;;2.67;;
46348;SDS011;32057;47.830;19.046;2024-02-15T03:05:21;2.45;;;2.05;;
46348;SDS011;32057;47.830;19.046;2024-02-15T03:07:47;4.15;;;2.65;;
46348;SDS011;32057;47.830;19.046;2024-02-15T03:10:12;4.70;;;2.90;;
46348;SDS011;32057;47.830;19.046;2024-02-15T03:12:39;3.90;;;2.63;;
46348;SDS011;32057;47.830;19.046;2024-02-15T03:15:05;2.53;;;2.13;;
46348;SDS011;32057;47.830;19.046;2024-02-15T03:17:40;7.13;;;2.67;;
46348;SDS011;32057;47.830;19.046;2024-02-15T03:20:06;3.83;;;2.03;;
46348;SDS011;32057;47.830;19.046;2024-02-15T03:22:37;7.88;;;2.88;;
46348;SDS011;32057;47.830;19.046;2024-02-15T03:25:06;6.43;;;2.00;;
46348;SDS011;32057;47.830;19.046;2024-02-15T03:27:36;2.35;;;2.15;;
46348;SDS011;32057;47.830;19.046;2024-02-15T03:30:05;5.03;;;2.57;;
46348;SDS011;32057;47.830;19.046;2024-02-15T03:32:31;8.43;;;3.42;;
46348;SDS011;32057;47.830;19.046;2024-02-15T03:34:56;52.83;;;7.00;;
46348;SDS011;32057;47.830;19.046;2024-02-15T03:37:21;4.80;;;1.92;;
46348;SDS011;32057;47.830;19.046;2024-02-15T03:39:47;7.57;;;2.58;;
46348;SDS011;32057;47.830;19.046;2024-02-15T03:42:12;3.47;;;2.45;;
46348;SDS011;32057;47.830;19.046;2024-02-15T03:44:38;3.78;;;2.35;;
46348;SDS011;32057;47.830;19.046;2024-02-15T03:47:03;8.98;;;2.65;;
46348;SDS011;32057;47.830;19.046;2024-02-15T03:49:30;6.78;;;2.22;;
46348;SDS011;32057;47.830;19.046;2024-02-15T03:51:56;8.10;;;2.97;;
46348;SDS011;32057;47.830;19.046;2024-02-15T03:54:24;4.30;;;2.85;;
46348;SDS011;32057;47.830;19.046;2024-02-15T03:56:50;2.95;;;2.17;;
46348;SDS011;32057;47.830;19.046;2024-02-15T03:59:21;9.63;;;1.98;;
46348;SDS011;32057;47.830;19.046;2024-02-15T04:01:54;3.65;;;2.22;;
46348;SDS011;32057;47.830;19.046;2024-02-15T04:04:21;3.95;;;2.45;;
46348;SDS011;32057;47.830;19.046;2024-02-15T04:06:50;9.15;;;2.95;;
46348;SDS011;32057;47.830;19.046;2024-02-15T04:09:16;4.28;;;2.47;;
46348;SDS011;32057;47.830;19.046;2024-02-15T04:11:45;4.95;;;2.92;;
46348;SDS011;32057;47.830;19.046;2024-02-15T04:14:14;5.20;;;2.42;;
46348;SDS011;32057;47.830;19.046;2024-02-15T04:16:40;6.20;;;2.25;;
46348;SDS011;32057;47.830;19.046;2024-02-15T04:19:05;2.78;;;2.35;;
46348;SDS011;32057;47.830;19.046;2024-02-15T04:21:31;3.35;;;2.50;;
46348;SDS011;32057;47.830;19.046;2024-02-15T04:23:56;3.65;;;2.17;;
46348;SDS011;32057;47.830;19.046;2024-02-15T04:26:21;3.40;;;2.53;;
46348;SDS011;32057;47.830;19.046;2024-02-15T04:28:51;5.07;;;2.22;;
46348;SDS011;32057;47.830;19.046;2024-02-15T04:31:17;2.55;;;2.33;;
46348;SDS011;32057;47.830;19.046;2024-02-15T04:33:43;2.47;;;1.92;;
46348;SDS011;32057;47.830;19.046;2024-02-15T04:36:08;4.47;;;2.15;;
46348;SDS011;32057;47.830;19.046;2024-02-15T04:38:34;3.22;;;2.28;;
46348;SDS011;32057;47.830;19.046;2024-02-15T04:41:00;3.90;;;2.33;;
46348;SDS011;32057;47.830;19.046;2024-02-15T04:43:28;3.83;;;2.17;;
46348;SDS011;32057;47.830;19.046;2024-02-15T04:45:54;26.77;;;3.78;;
46348;SDS011;32057;47.830;19.046;2024-02-15T04:48:19;4.57;;;2.38;;
46348;SDS011;32057;47.830;19.046;2024-02-15T04:50:44;10.18;;;3.38;;
46348;SDS011;32057;47.830;19.046;2024-02-15T04:53:10;5.80;;;1.80;;
46348;SDS011;32057;47.830;19.046;2024-02-15T04:55:36;4.32;;;2.50;;
46348;SDS011;32057;47.830;19.046;2024-02-15T04:58:01;3.08;;;2.25;;
46348;SDS011;32057;47.830;19.046;2024-02-15T05:00:27;7.28;;;3.40;;
46348;SDS011;32057;47.830;19.046;2024-02-15T05:02:53;2.35;;;2.15;;
46348;SDS011;32057;47.830;19.046;2024-02-15T05:05:19;8.25;;;2.70;;
46348;SDS011;32057;47.830;19.046;2024-02-15T05:07:45;3.72;;;2.58;;
46348;SDS011;32057;47.830;19.046;2024-02-15T05:10:10;3.10;;;2.60;;
46348;SDS011;32057;47.830;19.046;2024-02-15T05:12:39;4.28;;;2.92;;
46348;SDS011;32057;47.830;19.046;2024-02-15T05:15:05;2.25;;;1.83;;
46348;SDS011;32057;47.830;19.046;2024-02-15T05:17:37;3.30;;;2.80;;
46348;SDS011;32057;47.830;19.046;2024-02-15T05:20:05;3.03;;;2.47;;
46348;SDS011;32057;47.830;19.046;2024-02-15T05:22:38;4.23;;;2.60;;
46348;SDS011;32057;47.830;19.046;2024-02-15T05:25:05;9.70;;;2.72;;
46348;SDS011;32057;47.830;19.046;2024-02-15T05:27:33;4.45;;;3.53;;
46348;SDS011;32057;47.830;19.046;2024-02-15T05:29:59;3.33;;;2.42;;
46348;SDS011;32057;47.830;19.046;2024-02-15T05:32:24;6.65;;;2.85;;
46348;SDS011;32057;47.830;19.046;2024-02-15T05:34:51;3.38;;;2.10;;
46348;SDS011;32057;47.830;19.046;2024-02-15T05:37:16;3.72;;;2.80;;
46348;SDS011;32057;47.830;19.046;2024-02-15T05:39:42;3.55;;;2.67;;
46348;SDS011;32057;47.830;19.046;2024-02-15T05:42:07;3.58;;;2.65;;
46348;SDS011;32057;47.830;19.046;2024-02-15T05:44:33;5.47;;;2.30;;
46348;SDS011;32057;47.830;19.046;2024-02-15T05:46:59;9.77;;;4.13;;
46348;SDS011;32057;47.830;19.046;2024-02-15T05:49:25;7.55;;;3.25;;
46348;SDS011;32057;47.830;19.046;2024-02-15T05:51:50;6.50;;;3.70;;
46348;SDS011;32057;47.830;19.046;2024-02-15T05:54:16;4.00;;;3.15;;
46348;SDS011;32057;47.830;19.046;2024-02-15T05:56:42;8.98;;;4.57;;
46348;SDS011;32057;47.830;19.046;2024-02-15T05:59:08;8.25;;;3.80;;
46348;SDS011;32057;47.830;19.046;2024-02-15T06:01:36;5.90;;;3.72;;
46348;SDS011;32057;47.830;19.046;2024-02-15T06:04:02;3.25;;;2.47;;
46348;SDS011;32057;47.830;19.046;2024-02-15T06:06:29;13.18;;;5.10;;
46348;SDS011;32057;47.830;19.046;2024-02-15T06:08:55;4.15;;;3.35;;
46348;SDS011;32057;47.830;19.046;2024-02-15T06:11:24;17.42;;;4.10;;
46348;SDS011;32057;47.830;19.046;2024-02-15T06:13:50;9.65;;;4.10;;
46348;SDS011;32057;47.830;19.046;2024-02-15T06:16:15;6.03;;;3.28;;
46348;SDS011;32057;47.830;19.046;2024-02-15T06:18:40;7.10;;;3.70;;
46348;SDS011;32057;47.830;19.046;2024-02-15T06:21:05;6.25;;;3.13;;
46348;SDS011;32057;47.830;19.046;2024-02-15T06:23:31;4.95;;;3.60;;
46348;SDS011;32057;47.830;19.046;2024-02-15T06:25:58;3.72;;;3.35;;
46348;SDS011;32057;47.830;19.046;2024-02-15T06:28:25;6.55;;;4.13;;
46348;SDS011;32057;47.830;19.046;2024-02-15T06:31:10;7.68;;;3.75;;
46348;SDS011;32057;47.830;19.046;2024-02-15T06:33:55;4.85;;;3.83;;
46348;SDS011;32057;47.830;19.046;2024-02-15T06:36:40;4.20;;;3.38;;
46348;SDS011;32057;47.830;19.046;2024-02-15T06:39:24;16.65;;;3.45;;
46348;SDS011;32057;47.830;19.046;2024-02-15T06:42:10;2.72;;;2.42;;
46348;SDS011;32057;47.830;19.046;2024-02-15T06:44:44;5.15;;;2.65;;
46348;SDS011;32057;47.830;19.046;2024-02-15T06:47:11;6.03;;;3.78;;
46348;SDS011;32057;47.830;19.046;2024-02-15T06:49:37;3.30;;;2.72;;
46348;SDS011;32057;47.830;19.046;2024-02-15T06:52:10;6.22;;;3.40;;
46348;SDS011;32057;47.830;19.046;2024-02-15T06:54:39;6.75;;;2.92;;
46348;SDS011;32057;47.830;19.046;2024-02-15T06:57:05;15.75;;;3.63;;
46348;SDS011;32057;47.830;19.046;2024-02-15T06:59:31;5.35;;;3.42;;
46348;SDS011;32057;47.830;19.046;2024-02-15T07:01:57;15.40;;;3.75;;
46348;SDS011;32057;47.830;19.046;2024-02-15T07:04:23;5.80;;;4.32;;
46348;SDS011;32057;47.830;19.046;2024-02-15T07:06:50;5.57;;;3.58;;
46348;SDS011;32057;47.830;19.046;2024-02-15T07:09:17;7.72;;;2.80;;
46348;SDS011;32057;47.830;19.046;2024-02-15T07:11:45;3.53;;;3.17;;
46348;SDS011;32057;47.830;19.046;2024-02-15T07:14:11;4.70;;;3.00;;
46348;SDS011;32057;47.830;19.046;2024-02-15T07:16:43;6.85;;;4.03;;
46348;SDS011;32057;47.830;19.046;2024-02-15T07:19:12;4.05;;;2.92;;
46348;SDS011;32057;47.830;19.046;2024-02-15T07:21:39;5.45;;;3.95;;
46348;SDS011;32057;47.830;19.046;2024-02-15T07:24:05;4.75;;;3.42;;
46348;SDS011;32057;47.830;19.046;2024-02-15T07:26:30;18.00;;;3.80;;
46348;SDS011;32057;47.830;19.046;2024-02-15T07:28:56;6.38;;;3.30;;
46348;SDS011;32057;47.830;19.046;2024-02-15T07:31:22;5.82;;;3.80;;
46348;SDS011;32057;47.830;19.046;2024-02-15T07:33:48;11.70;;;3.97;;
46348;SDS011;32057;47.830;19.046;2024-02-15T07:36:17;4.82;;;4.32;;
46348;SDS011;32057;47.830;19.046;2024-02-15T07:38:44;6.40;;;5.15;;
46348;SDS011;32057;47.830;19.046;2024-02-15T07:41:10;5.65;;;3.88;;
46348;SDS011;32057;47.830;19.046;2024-02-15T07:43:36;6.32;;;4.05;;
46348;SDS011;32057;47.830;19.046;2024-02-15T07:46:01;4.47;;;3.42;;
46348;SDS011;32057;47.830;19.046;2024-02-15T07:48:26;12.80;;;4.03;;
46348;SDS011;32057;47.830;19.046;2024-02-15T07:50:52;5.75;;;4.13;;
46348;SDS011;32057;47.830;19.046;2024-02-15T07:53:18;5.47;;;3.78;;
46348;SDS011;32057;47.830;19.046;2024-02-15T07:55:44;6.38;;;4.70;;
46348;SDS011;32057;47.830;19.046;2024-02-15T07:58:10;5.95;;;3.45;;
46348;SDS011;32057;47.830;19.046;2024-02-15T08:00:35;5.40;;;3.50;;
46348;SDS011;32057;47.830;19.046;2024-02-15T08:03:02;10.50;;;4.78;;
46348;SDS011;32057;47.830;19.046;2024-02-15T08:05:28;6.60;;;4.32;;
46348;SDS011;32057;47.830;19.046;2024-02-15T08:07:53;6.05;;;4.00;;
46348;SDS011;32057;47.830;19.046;2024-02-15T08:10:22;4.82;;;3.28;;
46348;SDS011;32057;47.830;19.046;2024-02-15T08:12:47;5.43;;;4.32;;
46348;SDS011;32057;47.830;19.046;2024-02-15T08:15:17;4.85;;;3.35;;
46348;SDS011;32057;47.830;19.046;2024-02-15T08:17:43;8.75;;;4.75;;
46348;SDS011;32057;47.830;19.046;2024-02-15T08:20:13;6.28;;;4.03;;
46348;SDS011;32057;47.830;19.046;2024-02-15T08:22:40;6.07;;;4.55;;
46348;SDS011;32057;47.830;19.046;2024-02-15T08:25:24;9.25;;;4.70;;
46348;SDS011;32057;47.830;19.046;2024-02-15T08:27:50;7.35;;;4.70;;
46348;SDS011;32057;47.830;19.046;2024-02-15T08:30:16;7.95;;;5.03;;
46348;SDS011;32057;47.830;19.046;2024-02-15T08:32:42;8.10;;;4.95;;
46348;SDS011;32057;47.830;19.046;2024-02-15T08:35:09;9.40;;;4.07;;
46348;SDS011;32057;47.830;19.046;2024-02-15T08:37:35;8.05;;;4.57;;
46348;SDS011;32057;47.830;19.046;2024-02-15T08:40:03;10.00;;;4.22;;
46348;SDS011;32057;47.830;19.046;2024-02-15T08:42:29;9.38;;;5.18;;
46348;SDS011;32057;47.830;19.046;2024-02-15T08:44:55;8.55;;;5.65;;
46348;SDS011;32057;47.830;19.046;2024-02-15T08:47:20;6.30;;;4.07;;
46348;SDS011;32057;47.830;19.046;2024-02-15T08:49:46;6.78;;;4.60;;
46348;SDS011;32057;47.830;19.046;2024-02-15T08:52:11;9.82;;;5.22;;
46348;SDS011;32057;47.830;19.046;2024-02-15T08:54:36;9.23;;;5.25;;
46348;SDS011;32057;47.830;19.046;2024-02-15T08:57:05;12.98;;;5.70;;
46348;SDS011;32057;47.830;19.046;2024-02-15T08:59:31;7.53;;;4.63;;
46348;SDS011;32057;47.830;19.046;2024-02-15T09:01:56;7.55;;;4.70;;
46348;SDS011;32057;47.830;19.046;2024-02-15T09:04:22;7.35;;;4.18;;
46348;SDS011;32057;47.830;19.046;2024-02-15T09:06:49;12.73;;;5.30;;
46348;SDS011;32057;47.830;19.046;2024-02-15T09:09:15;15.15;;;5.38;;
46348;SDS011;32057;47.830;19.046;2024-02-15T09:11:41;10.20;;;6.13;;
46348;SDS011;32057;47.830;19.046;2024-02-15T09:14:06;8.23;;;5.28;;
46348;SDS011;32057;47.830;19.046;2024-02-15T09:16:35;19.10;;;6.82;;
46348;SDS011;32057;47.830;19.046;2024-02-15T09:19:00;14.75;;;5.25;;
46348;SDS011;32057;47.830;19.046;2024-02-15T09:21:26;10.73;;;6.68;;
46348;SDS011;32057;47.830;19.046;2024-02-15T09:23:54;8.85;;;4.80;;
46348;SDS011;32057;47.830;19.046;2024-02-15T09:26:19;12.10;;;6.93;;
46348;SDS011;32057;47.830;19.046;2024-02-15T09:28:45;11.90;;;7.43;;
46348;SDS011;32057;47.830;19.046;2024-02-15T09:31:12;9.77;;;6.10;;
46348;SDS011;32057;47.830;19.046;2024-02-15T09:33:38;8.65;;;5.30;;
46348;SDS011;32057;47.830;19.046;2024-02-15T09:36:04;7.60;;;5.25;;
46348;SDS011;32057;47.830;19.046;2024-02-15T09:38:30;10.57;;;5.43;;
46348;SDS011;32057;47.830;19.046;2024-02-15T09:40:55;10.77;;;5.50;;
46348;SDS011;32057;47.830;19.046;2024-02-15T09:43:20;8.70;;;5.47;;
46348;SDS011;32057;47.830;19.046;2024-02-15T09:45:46;14.77;;;6.13;;
46348;SDS011;32057;47.830;19.046;2024-02-15T09:48:12;11.00;;;6.97;;
46348;SDS011;32057;47.830;19.046;2024-02-15T09:50:41;13.88;;;6.18;;
46348;SDS011;32057;47.830;19.046;2024-02-15T09:53:07;8.57;;;5.70;;
46348;SDS011;32057;47.830;19.046;2024-02-15T09:55:34;9.85;;;6.78;;
46348;SDS011;32057;47.830;19.046;2024-02-15T09:58:00;12.05;;;6.15;;
46348;SDS011;32057;47.830;19.046;2024-02-15T10:00:26;7.15;;;5.28;;
46348;SDS011;32057;47.830;19.046;2024-02-15T10:02:51;9.32;;;5.35;;
46348;SDS011;32057;47.830;19.046;2024-02-15T10:05:23;9.88;;;6.20;;
46348;SDS011;32057;47.830;19.046;2024-02-15T10:07:48;14.68;;;5.72;;
46348;SDS011;32057;47.830;19.046;2024-02-15T10:10:20;12.68;;;6.68;;
46348;SDS011;32057;47.830;19.046;2024-02-15T10:12:46;11.15;;;5.50;;
46348;SDS011;32057;47.830;19.046;2024-02-15T10:15:35;12.20;;;6.15;;
46348;SDS011;32057;47.830;19.046;2024-02-15T10:18:09;10.07;;;6.40;;
46348;SDS011;32057;47.830;19.046;2024-02-15T10:20:40;10.52;;;5.75;;
46348;SDS011;32057;47.830;19.046;2024-02-15T10:23:13;13.37;;;7.00;;
46348;SDS011;32057;47.830;19.046;2024-02-15T10:25:42;8.43;;;5.60;;
46348;SDS011;32057;47.830;19.046;2024-02-15T10:28:09;10.15;;;6.07;;
46348;SDS011;32057;47.830;19.046;2024-02-15T10:30:40;14.55;;;7.35;;
46348;SDS011;32057;47.830;19.046;2024-02-15T10:33:26;12.27;;;6.57;;
46348;SDS011;32057;47.830;19.046;2024-02-15T10:36:05;16.15;;;6.38;;
46348;SDS011;32057;47.830;19.046;2024-02-15T10:38:33;8.07;;;6.13;;
46348;SDS011;32057;47.830;19.046;2024-02-15T10:41:05;15.25;;;7.10;;
46348;SDS011;32057;47.830;19.046;2024-02-15T10:43:31;21.73;;;12.23;;
46348;SDS011;32057;47.830;19.046;2024-02-15T10:45:58;12.80;;;8.15;;
46348;SDS011;32057;47.830;19.046;2024-02-15T10:48:24;12.13;;;7.25;;
46348;SDS011;32057;47.830;19.046;2024-02-15T10:50:49;13.82;;;8.25;;
46348;SDS011;32057;47.830;19.046;2024-02-15T10:58:52;11.30;;;7.40;;
46348;SDS011;32057;47.830;19.046;2024-02-15T11:01:25;16.55;;;7.93;;
46348;SDS011;32057;47.830;19.046;2024-02-15T11:04:03;12.13;;;7.05;;
46348;SDS011;32057;47.830;19.046;2024-02-15T11:06:33;13.48;;;7.63;;
46348;SDS011;32057;47.830;19.046;2024-02-15T11:09:03;14.60;;;7.45;;
46348;SDS011;32057;47.830;19.046;2024-02-15T11:11:31;21.95;;;8.98;;
46348;SDS011;32057;47.830;19.046;2024-02-15T11:16:57;11.52;;;7.28;;
46348;SDS011;32057;47.830;19.046;2024-02-15T11:22:11;21.23;;;8.25;;
46348;SDS011;32057;47.830;19.046;2024-02-15T11:24:49;16.48;;;8.43;;
46348;SDS011;32057;47.830;19.046;2024-02-15T11:27:27;9.25;;;6.97;;
46348;SDS011;32057;47.830;19.046;2024-02-15T11:30:01;10.65;;;7.07;;
46348;SDS011;32057;47.830;19.046;2024-02-15T11:43:06;13.75;;;7.75;;
46348;SDS011;32057;47.830;19.046;2024-02-15T11:45:32;12.50;;;6.68;;
46348;SDS011;32057;47.830;19.046;2024-02-15T11:48:10;12.82;;;7.25;;
46348;SDS011;32057;47.830;19.046;2024-02-15T11:50:37;10.10;;;6.78;;
46348;SDS011;32057;47.830;19.046;2024-02-15T11:53:03;9.63;;;6.75;;
46348;SDS011;32057;47.830;19.046;2024-02-15T11:55:36;9.27;;;6.68;;
46348;SDS011;32057;47.830;19.046;2024-02-15T11:58:03;11.65;;;6.68;;
46348;SDS011;32057;47.830;19.046;2024-02-15T12:00:35;18.55;;;6.05;;
46348;SDS011;32057;47.830;19.046;2024-02-15T12:03:20;9.48;;;6.22;;
46348;SDS011;32057;47.830;19.046;2024-02-15T12:06:05;9.55;;;6.85;;
46348;SDS011;32057;47.830;19.046;2024-02-15T12:08:51;8.05;;;6.13;;
46348;SDS011;32057;47.830;19.046;2024-02-15T12:11:36;11.07;;;7.32;;
46348;SDS011;32057;47.830;19.046;2024-02-15T12:14:21;11.73;;;7.45;;
46348;SDS011;32057;47.830;19.046;2024-02-15T12:17:06;13.57;;;7.22;;
46348;SDS011;32057;47.830;19.046;2024-02-15T12:19:51;12.10;;;6.70;;
46348;SDS011;32057;47.830;19.046;2024-02-15T12:25:05;16.92;;;7.90;;
46348;SDS011;32057;47.830;19.046;2024-02-15T12:27:55;13.13;;;7.70;;
46348;SDS011;32057;47.830;19.046;2024-02-15T12:30:21;11.55;;;7.25;;
46348;SDS011;32057;47.830;19.046;2024-02-15T12:32:48;12.95;;;7.55;;
46348;SDS011;32057;47.830;19.046;2024-02-15T12:35:25;12.30;;;6.88;;
46348;SDS011;32057;47.830;19.046;2024-02-15T12:38:01;12.60;;;7.35;;
46348;SDS011;32057;47.830;19.046;2024-02-15T12:40:30;13.23;;;7.93;;
46348;SDS011;32057;47.830;19.046;2024-02-15T12:42:56;12.13;;;7.53;;
46348;SDS011;32057;47.830;19.046;2024-02-15T12:45:24;11.35;;;6.63;;
46348;SDS011;32057;47.830;19.046;2024-02-15T12:47:53;14.15;;;8.13;;
46348;SDS011;32057;47.830;19.046;2024-02-15T12:50:20;13.20;;;8.43;;
46348;SDS011;32057;47.830;19.046;2024-02-15T12:52:47;9.30;;;7.53;;
46348;SDS011;32057;47.830;19.046;2024-02-15T12:55:14;11.50;;;8.13;;
46348;SDS011;32057;47.830;19.046;2024-02-15T12:57:52;12.93;;;7.57;;
46348;SDS011;32057;47.830;19.046;2024-02-15T13:00:21;10.80;;;6.90;;
46348;SDS011;32057;47.830;19.046;2024-02-15T13:02:53;12.70;;;8.10;;
46348;SDS011;32057;47.830;19.046;2024-02-15T13:05:18;13.10;;;7.10;;
46348;SDS011;32057;47.830;19.046;2024-02-15T13:07:48;15.10;;;7.30;;
46348;SDS011;32057;47.830;19.046;2024-02-15T13:10:14;13.15;;;6.82;;
46348;SDS011;32057;47.830;19.046;2024-02-15T13:12:40;9.90;;;6.10;;
46348;SDS011;32057;47.830;19.046;2024-02-15T13:15:10;9.75;;;5.13;;
46348;SDS011;32057;47.830;19.046;2024-02-15T13:17:40;11.32;;;6.63;;
46348;SDS011;32057;47.830;19.046;2024-02-15T13:20:09;10.95;;;6.35;;
46348;SDS011;32057;47.830;19.046;2024-02-15T13:22:39;9.27;;;6.28;;
46348;SDS011;32057;47.830;19.046;2024-02-15T13:25:08;10.38;;;6.47;;
46348;SDS011;32057;47.830;19.046;2024-02-15T13:27:34;16.25;;;6.57;;
46348;SDS011;32057;47.830;19.046;2024-02-15T13:30:03;7.03;;;4.88;;
46348;SDS011;32057;47.830;19.046;2024-02-15T13:32:37;12.52;;;7.03;;
46348;SDS011;32057;47.830;19.046;2024-02-15T13:35:03;12.95;;;5.28;;
46348;SDS011;32057;47.830;19.046;2024-02-15T13:37:37;10.73;;;5.68;;
46348;SDS011;32057;47.830;19.046;2024-02-15T13:40:12;7.07;;;5.90;;
46348;SDS011;32057;47.830;19.046;2024-02-15T13:42:43;8.45;;;5.50;;
46348;SDS011;32057;47.830;19.046;2024-02-15T13:45:19;8.18;;;5.82;;
46348;SDS011;32057;47.830;19.046;2024-02-15T13:47:48;13.40;;;6.00;;
46348;SDS011;32057;47.830;19.046;2024-02-15T13:50:21;12.02;;;6.57;;
46348;SDS011;32057;47.830;19.046;2024-02-15T13:52:46;9.15;;;6.22;;
46348;SDS011;32057;47.830;19.046;2024-02-15T13:55:16;15.30;;;6.63;;
46348;SDS011;32057;47.830;19.046;2024-02-15T13:57:46;10.90;;;6.22;;
46348;SDS011;32057;47.830;19.046;2024-02-15T14:00:16;19.77;;;5.88;;
46348;SDS011;32057;47.830;19.046;2024-02-15T14:05:14;11.25;;;5.63;;
46348;SDS011;32057;47.830;19.046;2024-02-15T14:07:42;12.73;;;5.72;;
46348;SDS011;32057;47.830;19.046;2024-02-15T14:10:08;9.80;;;6.05;;
46348;SDS011;32057;47.830;19.046;2024-02-15T14:12:36;9.38;;;5.20;;
46348;SDS011;32057;47.830;19.046;2024-02-15T14:15:04;12.55;;;7.78;;
46348;SDS011;32057;47.830;19.046;2024-02-15T14:17:30;9.60;;;5.20;;
46348;SDS011;32057;47.830;19.046;2024-02-15T14:19:56;9.98;;;5.35;;
46348;SDS011;32057;47.830;19.046;2024-02-15T14:22:22;9.68;;;5.60;;
46348;SDS011;32057;47.830;19.046;2024-02-15T14:24:48;8.82;;;4.97;;
46348;SDS011;32057;47.830;19.046;2024-02-15T14:27:14;12.02;;;6.40;;
46348;SDS011;32057;47.830;19.046;2024-02-15T14:29:39;20.00;;;6.75;;
46348;SDS011;32057;47.830;19.046;2024-02-15T14:32:25;12.48;;;5.45;;
46348;SDS011;32057;47.830;19.046;2024-02-15T14:35:09;9.25;;;5.13;;
46348;SDS011;32057;47.830;19.046;2024-02-15T14:37:34;8.85;;;6.10;;
46348;SDS011;32057;47.830;19.046;2024-02-15T14:40:00;11.85;;;5.45;;
46348;SDS011;32057;47.830;19.046;2024-02-15T14:42:25;13.95;;;5.95;;
46348;SDS011;32057;47.830;19.046;2024-02-15T14:44:51;16.17;;;7.50;;
46348;SDS011;32057;47.830;19.046;2024-02-15T14:47:17;11.27;;;6.85;;
46348;SDS011;32057;47.830;19.046;2024-02-15T14:49:43;10.60;;;5.32;;
46348;SDS011;32057;47.830;19.046;2024-02-15T14:52:09;15.20;;;5.95;;
46348;SDS011;32057;47.830;19.046;2024-02-15T14:54:34;11.80;;;6.35;;
46348;SDS011;32057;47.830;19.046;2024-02-15T14:57:01;16.20;;;6.93;;
46348;SDS011;32057;47.830;19.046;2024-02-15T14:59:26;8.77;;;5.72;;
46348;SDS011;32057;47.830;19.046;2024-02-15T15:01:52;11.38;;;6.85;;
46348;SDS011;32057;47.830;19.046;2024-02-15T15:04:18;20.30;;;6.15;;